Vineland, NJ (08360)

12:28 PM EDT on September 04, 2015 (GMT -0400)
Ramblewood | Change Station
CLOSE
Current Station
Personal Weather Station
Location: Vineland, NJ
Elevation: 110 ft
Nearby Weather Stations

Elev 110 ft 39.50 °N, 75.01 °W | Updated 4 seconds ago

Clear
Clear
91.2 °F
Feels Like 101 °F
N
2.3
Wind Variable Wind from NNW
Gusts 2.3 mph

Today
High -- | Low -- °F
--% Chance of Precip.
Yesterday
High -- | Low -- °F
Precip. -- in
6:30 AM 7:26 PM
Waning Gibbous, 58% visible
Pressure 30.03 in
Visibility 7.0 miles
Clouds Clear
Heat Index 101 °F
Dew Point 74 °F
Humidity 57%
Rainfall 0.00 in
Snow Depth Not available.
UV 8 out of 12
Pollen 9.80 out of 12
PM2.5 Moderate
Flu Activity Not available.
METAR KMIV 041554Z AUTO 10008KT 7SM CLR 31/19 A3004 RMK AO2 SLP169 T03110189

More Conditions Fewer Conditions

Pressure 30.03 in
Visibility 7.0 miles
Clouds Clear
Heat Index 101 °F
Dew Point 74 °F
Humidity 57%
Rainfall 0.00 in
Snow Depth Not available.
UV 8 out of 12
Pollen 9.80 out of 12
PM2.5 Moderate
Flu Activity Not available.
METAR KMIV 041554Z AUTO 10008KT 7SM CLR 31/19 A3004 RMK AO2 SLP169 T03110189

More Conditions Fewer Conditions

10-Day Weather Forecast

Almanac

Astronomy

Sep. 04, 2015 Rise Set
Actual Time 6:30 AM EDT 7:26 PM EDT
Civil Twilight 6:03 AM EDT 7:54 PM EDT
Nautical Twilight 5:30 AM EDT 8:26 PM EDT
Astronomical Twilight 4:57 AM EDT 9:00 PM EDT
Moon 11:38 PM EDT 1:07 PM EDT
Length of Visible Light 13h 50m
Length of Day
12h 55m
Tomorrow will be 2m 29s shorter.
Waning Gibbous, 58% of the Moon is Illuminated
Today
Waning Gibbous
Sep 5
Last Quarter
Sep 13
New
Sep 21
First Quarter
Sep 27
Full

Today's Extremes

State Highs State Lows

Community

WunderPhotos

Upload Photos

1,852,218 photos uploaded!

Nearby

Air Quality

  Air Quality AQ Index Pollutant
Yesterday Moderate
OZONE
Yesterday Moderate
PM2.5
Current Moderate
PM2.5
Friday Moderate
PM2.5
Friday Moderate
OZONE
Saturday Good
PM2.5
Saturday Good
OZONE
Sunday Good
PM2.5
Sunday Good
OZONE
Monday Moderate
PM2.5
Monday Moderate
OZONE
Tuesday Moderate
OZONE
Tuesday Moderate
PM2.5

Snow Depth

Station Depth Elevation
No new snow has been reported.

Earthquake Activity

City Distance Mag. Time & Date
No recent earthquake activity has been reported nearby.
Minimum magnitude displayed is 2.5.

Coastal Water Temperatures

Place Temperature
Cape May, NJ 81.0 °F
Brandywine Shoal Light, DE 77.0 °F
Lewes, DE 77.0 °F

Nearby Weather Stations